createdAt,value
2023-03-11T00:01:50.333Z,8.65
2023-03-11T00:11:54.579Z,8.80
2023-03-11T00:21:58.321Z,11.20
2023-03-11T00:32:03.456Z,6.38
2023-03-11T00:42:08.063Z,6.55
2023-03-11T00:52:12.484Z,4.70
2023-03-11T01:02:17.152Z,8.07
2023-03-11T01:12:21.459Z,4.38
2023-03-11T01:22:24.910Z,8.20
2023-03-11T01:32:32.263Z,4.60
2023-03-11T01:42:35.348Z,5.10
2023-03-11T01:52:42.244Z,3.60
2023-03-11T02:02:50.536Z,6.72
2023-03-11T02:12:55.124Z,7.80
2023-03-11T02:23:00.241Z,8.20
2023-03-11T02:33:05.933Z,9.35
2023-03-11T02:43:12.901Z,8.35
2023-03-11T02:53:18.320Z,6.43
2023-03-11T03:03:22.755Z,9.02
2023-03-11T03:13:27.934Z,7.80
2023-03-11T03:23:35.806Z,10.05
2023-03-11T03:33:40.120Z,9.57
2023-03-11T03:43:43.356Z,12.75
2023-03-11T03:53:49.681Z,9.95
2023-03-11T04:03:52.785Z,10.23
2023-03-11T04:13:57.139Z,8.30
2023-03-11T04:24:00.292Z,12.57
2023-03-11T04:34:09.077Z,10.15
2023-03-11T04:44:11.969Z,9.00
2023-03-11T04:54:17.244Z,8.88
2023-03-11T05:04:21.654Z,7.90
2023-03-11T05:14:27.106Z,8.98
2023-03-11T05:24:33.183Z,9.35
2023-03-11T05:34:37.938Z,10.02
2023-03-11T05:44:42.794Z,10.57
2023-03-11T05:54:51.984Z,14.02
2023-03-11T06:04:56.696Z,7.18
2023-03-11T06:15:02.285Z,7.97
2023-03-11T06:25:09.703Z,7.85
2023-03-11T06:35:16.118Z,8.23
2023-03-11T06:45:20.789Z,13.68
2023-03-11T06:55:26.296Z,10.48
2023-03-11T07:05:30.720Z,13.93
2023-03-11T07:15:36.383Z,12.77
2023-03-11T07:25:45.792Z,12.73
2023-03-11T07:35:51.513Z,11.65
2023-03-11T07:46:03.906Z,12.35
2023-03-11T07:56:10.256Z,16.50
2023-03-11T08:06:15.481Z,12.05
2023-03-11T08:16:22.365Z,12.85
2023-03-11T08:26:27.367Z,17.77
2023-03-11T08:36:33.612Z,21.70
2023-03-11T08:46:40.873Z,10.75
2023-03-11T08:56:48.674Z,11.27
2023-03-11T09:06:52.895Z,17.40
2023-03-11T09:16:58.426Z,21.55
2023-03-11T09:27:02.753Z,11.95
2023-03-11T09:37:08.735Z,10.63
2023-03-11T09:47:46.878Z,8.48
2023-03-11T09:57:53.673Z,7.82
2023-03-11T10:08:03.339Z,12.48
2023-03-11T10:18:41.693Z,4.53
2023-03-11T10:28:50.326Z,4.00
2023-03-11T10:38:56.489Z,7.38
2023-03-11T10:48:59.940Z,4.22
2023-03-11T10:59:06.239Z,8.93
2023-03-11T11:09:17.764Z,5.20
2023-03-11T11:19:23.179Z,6.30
2023-03-11T11:29:27.313Z,5.53
2023-03-11T11:39:38.201Z,8.82
2023-03-11T11:49:50.187Z,2.65
2023-03-11T11:59:57.433Z,6.78
2023-03-11T12:10:22.645Z,2.42
2023-03-11T12:20:33.464Z,3.55
2023-03-11T12:30:42.579Z,2.03
2023-03-11T12:41:02.197Z,2.97
2023-03-11T12:51:07.273Z,11.30
2023-03-11T13:01:31.633Z,4.43
2023-03-11T13:11:45.827Z,7.72
2023-03-11T13:21:50.367Z,4.50
2023-03-11T13:32:13.864Z,4.55
2023-03-11T13:42:27.494Z,3.47
2023-03-11T13:52:34.346Z,3.13
2023-03-11T14:03:04.321Z,13.75
2023-03-11T14:13:17.927Z,3.42
2023-03-11T14:23:25.108Z,3.95
2023-03-11T14:33:29.603Z,8.18
2023-03-11T14:43:46.828Z,5.72
2023-03-11T14:54:01.509Z,4.55
2023-03-11T15:04:13.208Z,2.70
2023-03-11T15:14:22.029Z,2.45
2023-03-11T15:24:30.650Z,3.17
2023-03-11T15:34:38.821Z,6.33
2023-03-11T15:45:22.842Z,6.78
2023-03-11T15:55:28.133Z,4.40
2023-03-11T16:05:31.195Z,5.68
2023-03-11T16:15:40.093Z,5.50
2023-03-11T16:25:45.941Z,3.53
2023-03-11T16:35:50.479Z,3.00
2023-03-11T16:45:59.872Z,3.03
2023-03-11T16:56:24.772Z,4.28
2023-03-11T17:06:33.228Z,4.07
2023-03-11T17:16:43.725Z,4.00
2023-03-11T17:26:46.788Z,4.25
2023-03-11T17:36:51.528Z,6.07
2023-03-11T17:47:03.475Z,7.30
2023-03-11T17:57:19.463Z,6.88
2023-03-11T18:07:26.803Z,5.97
2023-03-11T18:17:47.440Z,8.40
2023-03-11T18:27:52.818Z,7.47
2023-03-11T18:37:59.897Z,6.15
2023-03-11T18:48:06.629Z,6.43
2023-03-11T18:58:12.743Z,4.63
2023-03-11T19:08:19.020Z,4.57
2023-03-11T19:18:28.079Z,6.22
2023-03-11T19:28:34.364Z,3.03
2023-03-11T19:38:41.740Z,4.80
2023-03-11T19:49:02.055Z,4.00
2023-03-11T20:09:52.817Z,3.22
2023-03-11T20:31:37.797Z,2.75
2023-03-11T20:52:40.614Z,5.07
2023-03-11T21:02:59.911Z,6.23
2023-03-11T21:13:08.575Z,3.70
2023-03-11T21:23:13.702Z,3.17
2023-03-11T21:33:26.924Z,2.30
2023-03-11T21:43:40.802Z,2.65
2023-03-11T21:53:47.232Z,1.48
2023-03-11T22:03:53.541Z,7.18
2023-03-11T22:14:07.489Z,1.50
2023-03-11T22:24:19.749Z,2.65
2023-03-11T22:34:29.233Z,2.78
2023-03-11T22:44:32.475Z,1.48
2023-03-11T22:54:40.783Z,3.50
2023-03-11T23:04:47.123Z,2.60
2023-03-11T23:14:52.096Z,3.83
2023-03-11T23:24:55.203Z,2.85
2023-03-11T23:35:03.611Z,2.58
2023-03-11T23:45:13.646Z,3.85
2023-03-11T23:55:18.992Z,2.45
